sensor_id;sensor_type;location;lat;lon;timestamp;P1;durP1;ratioP1;P2;durP2;ratioP2
52208;SDS011;38507;53.132;6.394;2023-09-08T00:00:05;11.75;;;6.57;;
52208;SDS011;38507;53.132;6.394;2023-09-08T00:02:31;8.10;;;6.50;;
52208;SDS011;38507;53.132;6.394;2023-09-08T00:04:57;10.98;;;6.20;;
52208;SDS011;38507;53.132;6.394;2023-09-08T00:07:22;11.30;;;6.57;;
52208;SDS011;38507;53.132;6.394;2023-09-08T00:09:48;11.02;;;6.80;;
52208;SDS011;38507;53.132;6.394;2023-09-08T00:12:13;9.00;;;6.15;;
52208;SDS011;38507;53.132;6.394;2023-09-08T00:14:39;12.88;;;6.40;;
52208;SDS011;38507;53.132;6.394;2023-09-08T00:17:05;11.10;;;6.63;;
52208;SDS011;38507;53.132;6.394;2023-09-08T00:19:30;10.82;;;6.63;;
52208;SDS011;38507;53.132;6.394;2023-09-08T00:21:56;10.23;;;6.82;;
52208;SDS011;38507;53.132;6.394;2023-09-08T00:24:22;8.18;;;6.40;;
52208;SDS011;38507;53.132;6.394;2023-09-08T00:26:47;9.30;;;6.93;;
52208;SDS011;38507;53.132;6.394;2023-09-08T00:29:13;13.38;;;6.75;;
52208;SDS011;38507;53.132;6.394;2023-09-08T00:31:39;9.32;;;6.40;;
52208;SDS011;38507;53.132;6.394;2023-09-08T00:34:05;8.95;;;6.13;;
52208;SDS011;38507;53.132;6.394;2023-09-08T00:36:31;8.43;;;6.95;;
52208;SDS011;38507;53.132;6.394;2023-09-08T00:38:57;11.20;;;7.05;;
52208;SDS011;38507;53.132;6.394;2023-09-08T00:41:23;9.02;;;6.90;;
52208;SDS011;38507;53.132;6.394;2023-09-08T00:43:49;12.93;;;7.10;;
52208;SDS011;38507;53.132;6.394;2023-09-08T00:46:15;10.35;;;7.07;;
52208;SDS011;38507;53.132;6.394;2023-09-08T00:48:41;12.27;;;6.65;;
52208;SDS011;38507;53.132;6.394;2023-09-08T00:51:07;9.70;;;6.95;;
52208;SDS011;38507;53.132;6.394;2023-09-08T00:53:34;11.93;;;7.28;;
52208;SDS011;38507;53.132;6.394;2023-09-08T00:56:01;10.57;;;7.07;;
52208;SDS011;38507;53.132;6.394;2023-09-08T00:58:28;8.90;;;7.47;;
52208;SDS011;38507;53.132;6.394;2023-09-08T01:00:54;9.70;;;6.82;;
52208;SDS011;38507;53.132;6.394;2023-09-08T01:03:22;9.55;;;6.70;;
52208;SDS011;38507;53.132;6.394;2023-09-08T01:05:49;12.85;;;7.28;;
52208;SDS011;38507;53.132;6.394;2023-09-08T01:08:15;11.50;;;7.43;;
52208;SDS011;38507;53.132;6.394;2023-09-08T01:10:41;11.18;;;7.25;;
52208;SDS011;38507;53.132;6.394;2023-09-08T01:13:07;14.93;;;7.70;;
52208;SDS011;38507;53.132;6.394;2023-09-08T01:15:33;11.57;;;7.57;;
52208;SDS011;38507;53.132;6.394;2023-09-08T01:17:59;12.80;;;6.70;;
52208;SDS011;38507;53.132;6.394;2023-09-08T01:20:35;9.02;;;6.97;;
52208;SDS011;38507;53.132;6.394;2023-09-08T01:26:10;12.15;;;7.72;;
52208;SDS011;38507;53.132;6.394;2023-09-08T01:28:38;10.55;;;6.85;;
52208;SDS011;38507;53.132;6.394;2023-09-08T01:31:05;11.77;;;7.18;;
52208;SDS011;38507;53.132;6.394;2023-09-08T01:33:32;11.23;;;7.50;;
52208;SDS011;38507;53.132;6.394;2023-09-08T01:35:58;11.57;;;7.85;;
52208;SDS011;38507;53.132;6.394;2023-09-08T01:38:24;14.70;;;7.60;;
52208;SDS011;38507;53.132;6.394;2023-09-08T01:40:49;13.13;;;7.28;;
52208;SDS011;38507;53.132;6.394;2023-09-08T01:43:15;11.63;;;8.13;;
52208;SDS011;38507;53.132;6.394;2023-09-08T01:45:41;10.48;;;7.35;;
52208;SDS011;38507;53.132;6.394;2023-09-08T01:48:06;11.95;;;8.05;;
52208;SDS011;38507;53.132;6.394;2023-09-08T01:50:32;13.10;;;7.80;;
52208;SDS011;38507;53.132;6.394;2023-09-08T01:52:57;10.70;;;8.02;;
52208;SDS011;38507;53.132;6.394;2023-09-08T01:55:23;13.35;;;7.72;;
52208;SDS011;38507;53.132;6.394;2023-09-08T01:57:48;14.00;;;8.38;;
52208;SDS011;38507;53.132;6.394;2023-09-08T02:00:14;12.02;;;7.78;;
52208;SDS011;38507;53.132;6.394;2023-09-08T02:02:40;14.20;;;9.00;;
52208;SDS011;38507;53.132;6.394;2023-09-08T02:05:06;10.98;;;8.60;;
52208;SDS011;38507;53.132;6.394;2023-09-08T02:07:32;12.32;;;9.88;;
52208;SDS011;38507;53.132;6.394;2023-09-08T02:09:58;14.85;;;8.45;;
52208;SDS011;38507;53.132;6.394;2023-09-08T02:12:23;11.57;;;8.35;;
52208;SDS011;38507;53.132;6.394;2023-09-08T02:14:49;13.52;;;7.70;;
52208;SDS011;38507;53.132;6.394;2023-09-08T02:17:17;15.98;;;9.70;;
52208;SDS011;38507;53.132;6.394;2023-09-08T02:19:42;13.63;;;9.05;;
52208;SDS011;38507;53.132;6.394;2023-09-08T02:22:08;13.55;;;9.23;;
52208;SDS011;38507;53.132;6.394;2023-09-08T02:24:34;19.67;;;9.52;;
52208;SDS011;38507;53.132;6.394;2023-09-08T02:26:59;14.30;;;9.52;;
52208;SDS011;38507;53.132;6.394;2023-09-08T02:29:25;13.38;;;8.63;;
52208;SDS011;38507;53.132;6.394;2023-09-08T02:31:51;12.45;;;8.60;;
52208;SDS011;38507;53.132;6.394;2023-09-08T02:34:16;11.63;;;8.45;;
52208;SDS011;38507;53.132;6.394;2023-09-08T02:36:42;17.73;;;9.13;;
52208;SDS011;38507;53.132;6.394;2023-09-08T02:39:08;14.20;;;8.57;;
52208;SDS011;38507;53.132;6.394;2023-09-08T02:41:33;15.20;;;8.57;;
52208;SDS011;38507;53.132;6.394;2023-09-08T02:43:59;10.93;;;8.40;;
52208;SDS011;38507;53.132;6.394;2023-09-08T02:46:25;11.13;;;8.75;;
52208;SDS011;38507;53.132;6.394;2023-09-08T02:48:51;15.98;;;8.85;;
52208;SDS011;38507;53.132;6.394;2023-09-08T02:51:17;12.60;;;9.45;;
52208;SDS011;38507;53.132;6.394;2023-09-08T02:53:43;13.35;;;8.45;;
52208;SDS011;38507;53.132;6.394;2023-09-08T02:56:09;12.05;;;9.02;;
52208;SDS011;38507;53.132;6.394;2023-09-08T02:58:34;14.10;;;9.35;;
52208;SDS011;38507;53.132;6.394;2023-09-08T03:03:37;12.55;;;8.52;;
52208;SDS011;38507;53.132;6.394;2023-09-08T03:06:03;13.18;;;8.80;;
52208;SDS011;38507;53.132;6.394;2023-09-08T03:08:29;13.02;;;9.13;;
52208;SDS011;38507;53.132;6.394;2023-09-08T03:10:56;16.02;;;9.20;;
52208;SDS011;38507;53.132;6.394;2023-09-08T03:13:22;12.75;;;9.15;;
52208;SDS011;38507;53.132;6.394;2023-09-08T03:15:48;12.35;;;8.45;;
52208;SDS011;38507;53.132;6.394;2023-09-08T03:18:13;11.55;;;8.73;;
52208;SDS011;38507;53.132;6.394;2023-09-08T03:20:39;11.25;;;9.05;;
52208;SDS011;38507;53.132;6.394;2023-09-08T03:23:05;13.55;;;8.90;;
52208;SDS011;38507;53.132;6.394;2023-09-08T03:25:31;11.75;;;8.77;;
52208;SDS011;38507;53.132;6.394;2023-09-08T03:27:56;13.20;;;9.43;;
52208;SDS011;38507;53.132;6.394;2023-09-08T03:30:22;14.65;;;9.63;;
52208;SDS011;38507;53.132;6.394;2023-09-08T03:32:48;15.90;;;9.20;;
52208;SDS011;38507;53.132;6.394;2023-09-08T03:35:13;13.88;;;9.50;;
52208;SDS011;38507;53.132;6.394;2023-09-08T03:37:39;13.88;;;9.45;;
52208;SDS011;38507;53.132;6.394;2023-09-08T03:40:05;16.08;;;9.13;;
52208;SDS011;38507;53.132;6.394;2023-09-08T03:42:31;16.52;;;9.38;;
52208;SDS011;38507;53.132;6.394;2023-09-08T03:44:57;12.55;;;9.50;;
52208;SDS011;38507;53.132;6.394;2023-09-08T03:47:23;11.63;;;9.43;;
52208;SDS011;38507;53.132;6.394;2023-09-08T03:49:48;14.32;;;9.63;;
52208;SDS011;38507;53.132;6.394;2023-09-08T03:52:14;12.32;;;9.55;;
52208;SDS011;38507;53.132;6.394;2023-09-08T03:54:40;14.82;;;9.45;;
52208;SDS011;38507;53.132;6.394;2023-09-08T03:57:06;14.30;;;9.35;;
52208;SDS011;38507;53.132;6.394;2023-09-08T03:59:31;15.32;;;9.93;;
52208;SDS011;38507;53.132;6.394;2023-09-08T04:01:57;15.70;;;9.85;;
52208;SDS011;38507;53.132;6.394;2023-09-08T04:04:22;12.43;;;9.40;;
52208;SDS011;38507;53.132;6.394;2023-09-08T04:06:48;16.38;;;9.75;;
52208;SDS011;38507;53.132;6.394;2023-09-08T04:09:14;11.48;;;10.18;;
52208;SDS011;38507;53.132;6.394;2023-09-08T04:11:39;13.30;;;10.35;;
52208;SDS011;38507;53.132;6.394;2023-09-08T04:14:05;15.52;;;10.23;;
52208;SDS011;38507;53.132;6.394;2023-09-08T04:16:31;14.98;;;10.27;;
52208;SDS011;38507;53.132;6.394;2023-09-08T04:18:56;20.70;;;10.05;;
52208;SDS011;38507;53.132;6.394;2023-09-08T04:21:22;13.93;;;10.43;;
52208;SDS011;38507;53.132;6.394;2023-09-08T04:23:47;15.20;;;10.82;;
52208;SDS011;38507;53.132;6.394;2023-09-08T04:26:13;14.07;;;9.48;;
52208;SDS011;38507;53.132;6.394;2023-09-08T04:28:39;13.70;;;10.30;;
52208;SDS011;38507;53.132;6.394;2023-09-08T04:31:04;12.43;;;10.73;;
52208;SDS011;38507;53.132;6.394;2023-09-08T04:33:30;12.85;;;10.48;;
52208;SDS011;38507;53.132;6.394;2023-09-08T04:35:55;12.00;;;10.35;;
52208;SDS011;38507;53.132;6.394;2023-09-08T04:38:21;15.07;;;10.32;;
52208;SDS011;38507;53.132;6.394;2023-09-08T04:40:47;13.35;;;10.05;;
52208;SDS011;38507;53.132;6.394;2023-09-08T04:43:12;12.52;;;9.98;;
52208;SDS011;38507;53.132;6.394;2023-09-08T04:45:38;13.25;;;10.15;;
52208;SDS011;38507;53.132;6.394;2023-09-08T04:48:04;12.23;;;9.60;;
52208;SDS011;38507;53.132;6.394;2023-09-08T04:50:30;13.60;;;9.55;;
52208;SDS011;38507;53.132;6.394;2023-09-08T04:52:56;12.82;;;9.90;;
52208;SDS011;38507;53.132;6.394;2023-09-08T04:55:21;15.18;;;11.10;;
52208;SDS011;38507;53.132;6.394;2023-09-08T04:57:47;13.13;;;10.48;;
52208;SDS011;38507;53.132;6.394;2023-09-08T05:00:13;11.93;;;10.38;;
52208;SDS011;38507;53.132;6.394;2023-09-08T05:02:38;14.07;;;10.52;;
52208;SDS011;38507;53.132;6.394;2023-09-08T05:05:04;14.98;;;10.35;;
52208;SDS011;38507;53.132;6.394;2023-09-08T05:07:30;13.35;;;10.10;;
52208;SDS011;38507;53.132;6.394;2023-09-08T05:09:56;16.60;;;10.77;;
52208;SDS011;38507;53.132;6.394;2023-09-08T05:12:21;14.85;;;9.82;;
52208;SDS011;38507;53.132;6.394;2023-09-08T05:14:47;18.30;;;10.80;;
52208;SDS011;38507;53.132;6.394;2023-09-08T05:17:13;13.95;;;10.60;;
52208;SDS011;38507;53.132;6.394;2023-09-08T05:19:38;13.10;;;10.40;;
52208;SDS011;38507;53.132;6.394;2023-09-08T05:22:04;15.32;;;10.57;;
52208;SDS011;38507;53.132;6.394;2023-09-08T05:24:32;13.75;;;9.43;;
52208;SDS011;38507;53.132;6.394;2023-09-08T05:26:57;11.98;;;9.52;;
52208;SDS011;38507;53.132;6.394;2023-09-08T05:29:23;14.73;;;10.43;;
52208;SDS011;38507;53.132;6.394;2023-09-08T05:31:49;14.95;;;9.32;;
52208;SDS011;38507;53.132;6.394;2023-09-08T05:34:14;11.50;;;9.93;;
52208;SDS011;38507;53.132;6.394;2023-09-08T05:36:40;17.23;;;10.25;;
52208;SDS011;38507;53.132;6.394;2023-09-08T05:39:07;13.88;;;10.40;;
52208;SDS011;38507;53.132;6.394;2023-09-08T05:41:33;14.18;;;9.43;;
52208;SDS011;38507;53.132;6.394;2023-09-08T05:43:59;11.75;;;9.25;;
52208;SDS011;38507;53.132;6.394;2023-09-08T05:46:25;14.50;;;9.75;;
52208;SDS011;38507;53.132;6.394;2023-09-08T05:48:51;12.35;;;10.20;;
52208;SDS011;38507;53.132;6.394;2023-09-08T05:51:17;11.80;;;8.90;;
52208;SDS011;38507;53.132;6.394;2023-09-08T05:53:42;16.30;;;8.80;;
52208;SDS011;38507;53.132;6.394;2023-09-08T05:56:08;10.82;;;8.85;;
52208;SDS011;38507;53.132;6.394;2023-09-08T05:58:35;10.70;;;9.02;;
52208;SDS011;38507;53.132;6.394;2023-09-08T06:01:01;10.82;;;8.82;;
52208;SDS011;38507;53.132;6.394;2023-09-08T06:03:28;11.73;;;9.38;;
52208;SDS011;38507;53.132;6.394;2023-09-08T06:05:54;12.88;;;9.52;;
52208;SDS011;38507;53.132;6.394;2023-09-08T06:08:20;13.55;;;9.48;;
52208;SDS011;38507;53.132;6.394;2023-09-08T06:10:46;12.55;;;9.55;;
52208;SDS011;38507;53.132;6.394;2023-09-08T06:13:12;12.27;;;9.07;;
52208;SDS011;38507;53.132;6.394;2023-09-08T06:15:37;13.13;;;9.23;;
52208;SDS011;38507;53.132;6.394;2023-09-08T06:18:03;11.52;;;8.45;;
52208;SDS011;38507;53.132;6.394;2023-09-08T06:20:29;13.23;;;9.45;;
52208;SDS011;38507;53.132;6.394;2023-09-08T06:22:55;17.42;;;8.95;;
52208;SDS011;38507;53.132;6.394;2023-09-08T06:25:20;11.80;;;8.38;;
52208;SDS011;38507;53.132;6.394;2023-09-08T06:27:46;14.00;;;8.85;;
52208;SDS011;38507;53.132;6.394;2023-09-08T06:30:12;11.20;;;8.30;;
52208;SDS011;38507;53.132;6.394;2023-09-08T06:32:39;12.55;;;8.75;;
52208;SDS011;38507;53.132;6.394;2023-09-08T06:35:05;11.55;;;8.18;;
52208;SDS011;38507;53.132;6.394;2023-09-08T06:37:37;10.45;;;8.63;;
52208;SDS011;38507;53.132;6.394;2023-09-08T06:40:04;10.45;;;7.80;;
52208;SDS011;38507;53.132;6.394;2023-09-08T06:42:30;11.55;;;7.90;;
52208;SDS011;38507;53.132;6.394;2023-09-08T06:44:56;9.77;;;7.63;;
52208;SDS011;38507;53.132;6.394;2023-09-08T06:47:22;12.80;;;8.20;;
52208;SDS011;38507;53.132;6.394;2023-09-08T06:49:48;10.30;;;7.47;;
52208;SDS011;38507;53.132;6.394;2023-09-08T06:52:14;14.05;;;8.05;;
52208;SDS011;38507;53.132;6.394;2023-09-08T06:54:39;11.63;;;8.40;;
52208;SDS011;38507;53.132;6.394;2023-09-08T06:57:05;10.65;;;7.65;;
52208;SDS011;38507;53.132;6.394;2023-09-08T06:59:31;8.85;;;7.38;;
52208;SDS011;38507;53.132;6.394;2023-09-08T07:01:56;13.35;;;8.30;;
52208;SDS011;38507;53.132;6.394;2023-09-08T07:04:22;13.38;;;7.85;;
52208;SDS011;38507;53.132;6.394;2023-09-08T07:06:47;10.70;;;8.07;;
52208;SDS011;38507;53.132;6.394;2023-09-08T07:09:15;9.82;;;7.57;;
52208;SDS011;38507;53.132;6.394;2023-09-08T07:11:41;11.45;;;7.05;;
52208;SDS011;38507;53.132;6.394;2023-09-08T07:14:06;8.25;;;7.10;;
52208;SDS011;38507;53.132;6.394;2023-09-08T07:16:32;12.45;;;7.30;;
52208;SDS011;38507;53.132;6.394;2023-09-08T07:18:58;9.73;;;7.45;;
52208;SDS011;38507;53.132;6.394;2023-09-08T07:21:26;9.75;;;7.70;;
52208;SDS011;38507;53.132;6.394;2023-09-08T07:23:51;11.10;;;7.15;;
52208;SDS011;38507;53.132;6.394;2023-09-08T07:26:18;10.32;;;7.13;;
52208;SDS011;38507;53.132;6.394;2023-09-08T07:28:44;8.65;;;7.45;;
52208;SDS011;38507;53.132;6.394;2023-09-08T07:31:10;12.07;;;6.88;;
52208;SDS011;38507;53.132;6.394;2023-09-08T07:33:36;8.55;;;6.57;;
52208;SDS011;38507;53.132;6.394;2023-09-08T07:36:06;12.88;;;7.20;;
52208;SDS011;38507;53.132;6.394;2023-09-08T07:38:33;9.38;;;7.07;;
52208;SDS011;38507;53.132;6.394;2023-09-08T07:40:59;9.80;;;6.82;;
52208;SDS011;38507;53.132;6.394;2023-09-08T07:43:26;9.15;;;6.10;;
52208;SDS011;38507;53.132;6.394;2023-09-08T07:45:52;10.10;;;6.47;;
52208;SDS011;38507;53.132;6.394;2023-09-08T07:48:17;9.23;;;6.55;;
52208;SDS011;38507;53.132;6.394;2023-09-08T07:50:43;13.00;;;6.15;;
52208;SDS011;38507;53.132;6.394;2023-09-08T07:53:09;9.25;;;6.00;;
52208;SDS011;38507;53.132;6.394;2023-09-08T07:55:35;8.20;;;5.60;;
52208;SDS011;38507;53.132;6.394;2023-09-08T07:58:01;10.48;;;5.70;;
52208;SDS011;38507;53.132;6.394;2023-09-08T08:00:28;7.05;;;5.63;;
52208;SDS011;38507;53.132;6.394;2023-09-08T08:02:55;7.75;;;5.60;;
52208;SDS011;38507;53.132;6.394;2023-09-08T08:05:21;7.68;;;5.40;;
52208;SDS011;38507;53.132;6.394;2023-09-08T08:07:47;10.32;;;5.97;;
52208;SDS011;38507;53.132;6.394;2023-09-08T08:10:13;10.57;;;6.13;;
52208;SDS011;38507;53.132;6.394;2023-09-08T08:12:39;10.40;;;6.15;;
52208;SDS011;38507;53.132;6.394;2023-09-08T08:15:06;8.95;;;5.90;;
52208;SDS011;38507;53.132;6.394;2023-09-08T08:17:35;9.20;;;5.60;;
52208;SDS011;38507;53.132;6.394;2023-09-08T08:20:01;9.45;;;5.78;;
52208;SDS011;38507;53.132;6.394;2023-09-08T08:22:34;7.72;;;5.70;;
52208;SDS011;38507;53.132;6.394;2023-09-08T08:25:04;5.82;;;4.55;;
52208;SDS011;38507;53.132;6.394;2023-09-08T08:27:30;8.90;;;4.80;;
52208;SDS011;38507;53.132;6.394;2023-09-08T08:29:56;13.05;;;4.80;;
52208;SDS011;38507;53.132;6.394;2023-09-08T08:32:24;7.10;;;5.28;;
52208;SDS011;38507;53.132;6.394;2023-09-08T08:34:50;12.13;;;5.10;;
52208;SDS011;38507;53.132;6.394;2023-09-08T08:37:16;10.50;;;4.93;;
52208;SDS011;38507;53.132;6.394;2023-09-08T08:39:42;9.75;;;4.88;;
52208;SDS011;38507;53.132;6.394;2023-09-08T08:42:09;9.20;;;5.38;;
52208;SDS011;38507;53.132;6.394;2023-09-08T08:44:35;9.93;;;4.40;;
52208;SDS011;38507;53.132;6.394;2023-09-08T08:47:03;13.18;;;4.63;;
52208;SDS011;38507;53.132;6.394;2023-09-08T08:49:32;6.93;;;4.80;;
52208;SDS011;38507;53.132;6.394;2023-09-08T08:51:58;8.27;;;4.57;;
52208;SDS011;38507;53.132;6.394;2023-09-08T08:54:25;5.47;;;3.78;;
52208;SDS011;38507;53.132;6.394;2023-09-08T08:56:51;6.85;;;4.28;;
52208;SDS011;38507;53.132;6.394;2023-09-08T08:59:17;5.78;;;4.45;;
52208;SDS011;38507;53.132;6.394;2023-09-08T09:01:43;9.27;;;3.90;;
52208;SDS011;38507;53.132;6.394;2023-09-08T09:04:09;10.05;;;4.22;;
52208;SDS011;38507;53.132;6.394;2023-09-08T09:06:35;11.57;;;4.65;;
52208;SDS011;38507;53.132;6.394;2023-09-08T09:09:02;7.28;;;4.63;;
52208;SDS011;38507;53.132;6.394;2023-09-08T09:11:30;7.25;;;4.00;;
52208;SDS011;38507;53.132;6.394;2023-09-08T09:13:57;8.65;;;4.50;;
52208;SDS011;38507;53.132;6.394;2023-09-08T09:16:23;7.60;;;4.30;;
52208;SDS011;38507;53.132;6.394;2023-09-08T09:18:56;10.20;;;4.60;;
52208;SDS011;38507;53.132;6.394;2023-09-08T09:21:24;12.23;;;4.70;;
52208;SDS011;38507;53.132;6.394;2023-09-08T09:24:28;8.98;;;4.80;;
52208;SDS011;38507;53.132;6.394;2023-09-08T09:26:55;10.07;;;4.60;;
52208;SDS011;38507;53.132;6.394;2023-09-08T09:29:21;5.88;;;4.10;;
52208;SDS011;38507;53.132;6.394;2023-09-08T09:31:53;13.68;;;3.70;;
52208;SDS011;38507;53.132;6.394;2023-09-08T09:34:20;8.67;;;4.33;;
52208;SDS011;38507;53.132;6.394;2023-09-08T09:36:47;9.90;;;4.65;;
52208;SDS011;38507;53.132;6.394;2023-09-08T09:39:17;8.18;;;3.78;;
52208;SDS011;38507;53.132;6.394;2023-09-08T09:41:47;7.13;;;4.32;;
52208;SDS011;38507;53.132;6.394;2023-09-08T09:44:13;12.57;;;4.20;;
52208;SDS011;38507;53.132;6.394;2023-09-08T09:46:43;9.45;;;3.80;;
52208;SDS011;38507;53.132;6.394;2023-09-08T09:49:10;10.43;;;3.83;;
52208;SDS011;38507;53.132;6.394;2023-09-08T09:51:44;8.20;;;3.95;;
52208;SDS011;38507;53.132;6.394;2023-09-08T09:54:12;9.57;;;4.50;;
52208;SDS011;38507;53.132;6.394;2023-09-08T09:56:39;7.15;;;3.80;;
52208;SDS011;38507;53.132;6.394;2023-09-08T09:59:09;13.70;;;3.97;;
52208;SDS011;38507;53.132;6.394;2023-09-08T10:01:37;8.50;;;3.67;;
52208;SDS011;38507;53.132;6.394;2023-09-08T10:04:03;9.30;;;3.85;;
52208;SDS011;38507;53.132;6.394;2023-09-08T10:06:35;8.10;;;3.75;;
52208;SDS011;38507;53.132;6.394;2023-09-08T10:09:02;6.63;;;3.78;;
52208;SDS011;38507;53.132;6.394;2023-09-08T10:11:51;8.88;;;3.85;;
52208;SDS011;38507;53.132;6.394;2023-09-08T10:14:18;8.15;;;3.60;;
52208;SDS011;38507;53.132;6.394;2023-09-08T10:16:44;7.43;;;3.85;;
52208;SDS011;38507;53.132;6.394;2023-09-08T10:19:14;6.35;;;3.55;;
52208;SDS011;38507;53.132;6.394;2023-09-08T10:21:42;8.02;;;4.05;;
52208;SDS011;38507;53.132;6.394;2023-09-08T10:27:08;16.40;;;4.30;;
52208;SDS011;38507;53.132;6.394;2023-09-08T10:29:35;7.70;;;3.78;;
52208;SDS011;38507;53.132;6.394;2023-09-08T10:32:01;5.97;;;3.60;;
52208;SDS011;38507;53.132;6.394;2023-09-08T10:34:28;8.70;;;3.97;;
52208;SDS011;38507;53.132;6.394;2023-09-08T10:36:55;6.35;;;4.13;;
52208;SDS011;38507;53.132;6.394;2023-09-08T10:39:31;7.00;;;4.53;;
52208;SDS011;38507;53.132;6.394;2023-09-08T10:47:31;10.10;;;4.32;;
52208;SDS011;38507;53.132;6.394;2023-09-08T10:49:59;8.60;;;4.18;;
52208;SDS011;38507;53.132;6.394;2023-09-08T10:52:25;7.07;;;4.90;;
52208;SDS011;38507;53.132;6.394;2023-09-08T10:54:52;7.18;;;4.47;;
52208;SDS011;38507;53.132;6.394;2023-09-08T10:57:22;9.18;;;4.40;;
52208;SDS011;38507;53.132;6.394;2023-09-08T11:02:38;11.20;;;4.75;;
52208;SDS011;38507;53.132;6.394;2023-09-08T11:05:09;5.82;;;4.10;;
52208;SDS011;38507;53.132;6.394;2023-09-08T11:07:44;6.63;;;3.97;;
52208;SDS011;38507;53.132;6.394;2023-09-08T11:10:10;7.95;;;3.45;;
52208;SDS011;38507;53.132;6.394;2023-09-08T11:12:37;11.18;;;3.42;;
52208;SDS011;38507;53.132;6.394;2023-09-08T11:15:04;7.80;;;3.60;;
52208;SDS011;38507;53.132;6.394;2023-09-08T11:17:32;4.88;;;3.75;;
52208;SDS011;38507;53.132;6.394;2023-09-08T11:19:59;9.60;;;3.28;;
52208;SDS011;38507;53.132;6.394;2023-09-08T11:22:25;7.13;;;3.90;;
52208;SDS011;38507;53.132;6.394;2023-09-08T11:24:52;6.43;;;3.58;;
52208;SDS011;38507;53.132;6.394;2023-09-08T11:27:18;6.55;;;3.40;;
52208;SDS011;38507;53.132;6.394;2023-09-08T11:29:45;7.05;;;3.20;;
52208;SDS011;38507;53.132;6.394;2023-09-08T11:32:11;6.00;;;3.15;;
52208;SDS011;38507;53.132;6.394;2023-09-08T11:34:38;9.43;;;3.80;;
52208;SDS011;38507;53.132;6.394;2023-09-08T11:37:10;11.77;;;3.75;;
52208;SDS011;38507;53.132;6.394;2023-09-08T11:39:41;6.30;;;3.85;;
52208;SDS011;38507;53.132;6.394;2023-09-08T11:42:08;4.57;;;3.30;;
52208;SDS011;38507;53.132;6.394;2023-09-08T11:44:35;6.82;;;3.50;;
52208;SDS011;38507;53.132;6.394;2023-09-08T11:47:02;5.90;;;3.13;;
52208;SDS011;38507;53.132;6.394;2023-09-08T11:49:38;5.18;;;3.20;;
52208;SDS011;38507;53.132;6.394;2023-09-08T11:52:05;9.27;;;3.80;;
52208;SDS011;38507;53.132;6.394;2023-09-08T11:54:32;3.83;;;3.03;;
52208;SDS011;38507;53.132;6.394;2023-09-08T11:56:59;6.85;;;3.15;;
52208;SDS011;38507;53.132;6.394;2023-09-08T11:59:27;7.97;;;2.88;;
52208;SDS011;38507;53.132;6.394;2023-09-08T12:01:53;4.75;;;3.03;;
52208;SDS011;38507;53.132;6.394;2023-09-08T12:04:20;5.38;;;3.25;;
52208;SDS011;38507;53.132;6.394;2023-09-08T12:06:46;5.38;;;3.10;;
52208;SDS011;38507;53.132;6.394;2023-09-08T12:09:16;4.40;;;3.05;;
52208;SDS011;38507;53.132;6.394;2023-09-08T12:11:42;7.72;;;3.30;;
52208;SDS011;38507;53.132;6.394;2023-09-08T12:14:11;6.60;;;3.30;;
52208;SDS011;38507;53.132;6.394;2023-09-08T12:16:39;8.35;;;3.40;;
52208;SDS011;38507;53.132;6.394;2023-09-08T12:19:07;7.07;;;3.20;;
52208;SDS011;38507;53.132;6.394;2023-09-08T12:21:56;5.63;;;2.95;;
52208;SDS011;38507;53.132;6.394;2023-09-08T12:27:18;6.28;;;2.90;;
52208;SDS011;38507;53.132;6.394;2023-09-08T12:29:54;6.35;;;3.20;;
52208;SDS011;38507;53.132;6.394;2023-09-08T12:32:29;7.93;;;3.10;;
52208;SDS011;38507;53.132;6.394;2023-09-08T12:34:58;7.13;;;3.20;;
52208;SDS011;38507;53.132;6.394;2023-09-08T12:37:26;10.70;;;2.83;;
52208;SDS011;38507;53.132;6.394;2023-09-08T12:39:55;11.25;;;2.97;;
52208;SDS011;38507;53.132;6.394;2023-09-08T12:42:21;4.22;;;2.78;;
52208;SDS011;38507;53.132;6.394;2023-09-08T12:44:51;6.15;;;2.90;;
52208;SDS011;38507;53.132;6.394;2023-09-08T12:47:17;7.88;;;2.90;;
52208;SDS011;38507;53.132;6.394;2023-09-08T12:49:42;6.18;;;3.00;;
52208;SDS011;38507;53.132;6.394;2023-09-08T12:52:08;5.90;;;3.03;;
52208;SDS011;38507;53.132;6.394;2023-09-08T12:54:34;4.55;;;2.97;;
52208;SDS011;38507;53.132;6.394;2023-09-08T12:57:00;4.22;;;2.60;;
52208;SDS011;38507;53.132;6.394;2023-09-08T12:59:26;7.55;;;2.72;;
52208;SDS011;38507;53.132;6.394;2023-09-08T13:01:52;4.88;;;3.08;;
52208;SDS011;38507;53.132;6.394;2023-09-08T13:04:18;5.80;;;3.30;;
52208;SDS011;38507;53.132;6.394;2023-09-08T13:06:44;6.00;;;3.20;;
52208;SDS011;38507;53.132;6.394;2023-09-08T13:09:10;6.70;;;3.17;;
52208;SDS011;38507;53.132;6.394;2023-09-08T13:11:36;7.43;;;2.72;;
52208;SDS011;38507;53.132;6.394;2023-09-08T13:14:02;5.55;;;3.13;;
52208;SDS011;38507;53.132;6.394;2023-09-08T13:16:28;6.18;;;3.03;;
52208;SDS011;38507;53.132;6.394;2023-09-08T13:18:54;8.70;;;3.20;;
52208;SDS011;38507;53.132;6.394;2023-09-08T13:21:20;4.47;;;3.03;;
52208;SDS011;38507;53.132;6.394;2023-09-08T13:23:46;5.80;;;2.75;;
52208;SDS011;38507;53.132;6.394;2023-09-08T13:26:11;5.35;;;2.50;;
52208;SDS011;38507;53.132;6.394;2023-09-08T13:28:37;8.55;;;2.83;;
52208;SDS011;38507;53.132;6.394;2023-09-08T13:31:02;7.97;;;3.17;;
52208;SDS011;38507;53.132;6.394;2023-09-08T13:33:28;4.38;;;2.72;;
52208;SDS011;38507;53.132;6.394;2023-09-08T13:35:54;6.65;;;2.90;;
52208;SDS011;38507;53.132;6.394;2023-09-08T13:38:19;7.32;;;2.88;;
52208;SDS011;38507;53.132;6.394;2023-09-08T13:40:45;6.40;;;3.00;;
52208;SDS011;38507;53.132;6.394;2023-09-08T13:43:11;7.35;;;2.65;;
52208;SDS011;38507;53.132;6.394;2023-09-08T13:45:36;9.13;;;3.03;;
52208;SDS011;38507;53.132;6.394;2023-09-08T13:48:02;7.88;;;2.75;;
52208;SDS011;38507;53.132;6.394;2023-09-08T13:50:31;5.90;;;3.05;;
52208;SDS011;38507;53.132;6.394;2023-09-08T13:52:56;6.18;;;2.88;;
52208;SDS011;38507;53.132;6.394;2023-09-08T13:55:22;8.77;;;3.05;;
52208;SDS011;38507;53.132;6.394;2023-09-08T13:57:49;9.20;;;2.80;;
52208;SDS011;38507;53.132;6.394;2023-09-08T14:00:18;6.78;;;3.08;;
52208;SDS011;38507;53.132;6.394;2023-09-08T14:02:44;4.72;;;2.90;;
52208;SDS011;38507;53.132;6.394;2023-09-08T14:05:09;5.75;;;3.13;;
52208;SDS011;38507;53.132;6.394;2023-09-08T14:07:35;5.43;;;3.05;;
52208;SDS011;38507;53.132;6.394;2023-09-08T14:10:01;5.47;;;3.15;;
52208;SDS011;38507;53.132;6.394;2023-09-08T14:12:32;7.40;;;2.95;;
52208;SDS011;38507;53.132;6.394;2023-09-08T14:14:58;5.35;;;3.20;;
52208;SDS011;38507;53.132;6.394;2023-09-08T14:17:23;4.15;;;3.08;;
52208;SDS011;38507;53.132;6.394;2023-09-08T14:19:49;4.95;;;2.90;;
52208;SDS011;38507;53.132;6.394;2023-09-08T14:22:15;5.95;;;3.15;;
52208;SDS011;38507;53.132;6.394;2023-09-08T14:24:40;7.40;;;3.55;;
52208;SDS011;38507;53.132;6.394;2023-09-08T14:27:06;5.30;;;3.08;;
52208;SDS011;38507;53.132;6.394;2023-09-08T14:29:33;8.55;;;3.30;;
52208;SDS011;38507;53.132;6.394;2023-09-08T14:31:59;7.25;;;2.83;;
52208;SDS011;38507;53.132;6.394;2023-09-08T14:34:25;8.68;;;3.28;;
52208;SDS011;38507;53.132;6.394;2023-09-08T14:36:50;10.13;;;3.60;;
52208;SDS011;38507;53.132;6.394;2023-09-08T14:39:16;8.50;;;3.40;;
52208;SDS011;38507;53.132;6.394;2023-09-08T14:41:44;10.18;;;3.33;;
52208;SDS011;38507;53.132;6.394;2023-09-08T14:44:10;4.10;;;2.85;;
52208;SDS011;38507;53.132;6.394;2023-09-08T14:46:35;8.38;;;3.03;;
52208;SDS011;38507;53.132;6.394;2023-09-08T14:49:01;9.60;;;3.35;;
52208;SDS011;38507;53.132;6.394;2023-09-08T14:51:27;6.90;;;2.92;;
52208;SDS011;38507;53.132;6.394;2023-09-08T14:53:53;6.78;;;3.47;;
52208;SDS011;38507;53.132;6.394;2023-09-08T14:56:19;10.55;;;3.28;;